createdAt,value
2017-10-09T00:01:40.159Z,6.20
2017-10-09T00:04:07.519Z,5.70
2017-10-09T00:06:34.260Z,6.10
2017-10-09T00:09:01.743Z,6.30
2017-10-09T00:11:28.667Z,6.53
2017-10-09T00:13:55.403Z,5.37
2017-10-09T00:16:22.126Z,5.97
2017-10-09T00:18:49.750Z,6.15
2017-10-09T00:21:16.808Z,7.50
2017-10-09T00:23:44.415Z,7.18
2017-10-09T00:26:12.723Z,6.93
2017-10-09T00:28:42.843Z,6.55
2017-10-09T00:31:10.980Z,6.97
2017-10-09T00:33:37.831Z,6.90
2017-10-09T00:36:06.208Z,6.55
2017-10-09T00:38:34.656Z,7.05
2017-10-09T00:41:01.456Z,9.23
2017-10-09T00:43:28.231Z,8.32
2017-10-09T00:45:57.383Z,8.18
2017-10-09T00:48:24.217Z,9.55
2017-10-09T00:50:51.009Z,8.27
2017-10-09T00:53:17.799Z,10.25
2017-10-09T00:55:48.545Z,8.55
2017-10-09T00:58:15.323Z,8.60
2017-10-09T01:00:42.079Z,8.00
2017-10-09T01:03:11.176Z,8.90
2017-10-09T01:05:39.579Z,9.13
2017-10-09T01:08:06.877Z,9.70
2017-10-09T01:10:34.365Z,10.20
2017-10-09T01:13:02.123Z,8.45
2017-10-09T01:15:30.676Z,10.60
2017-10-09T01:17:59.171Z,9.32
2017-10-09T01:20:26.695Z,8.90
2017-10-09T01:22:53.542Z,10.20
2017-10-09T01:25:22.094Z,8.95
2017-10-09T01:27:49.835Z,9.23
2017-10-09T01:30:17.407Z,10.13
2017-10-09T01:32:46.312Z,8.48
2017-10-09T01:35:14.227Z,9.35
2017-10-09T01:37:43.193Z,9.25
2017-10-09T01:42:45.202Z,10.18
2017-10-09T01:45:13.070Z,10.25
2017-10-09T01:47:40.152Z,10.13
2017-10-09T01:50:06.880Z,9.70
2017-10-09T01:52:34.047Z,9.75
2017-10-09T01:55:01.956Z,10.10
2017-10-09T01:57:30.348Z,8.73
2017-10-09T01:59:58.632Z,9.05
2017-10-09T02:02:25.472Z,9.30
2017-10-09T02:04:54.315Z,10.25
2017-10-09T02:07:23.383Z,9.45
2017-10-09T02:09:50.235Z,9.40
2017-10-09T02:12:18.339Z,8.82
2017-10-09T02:14:46.717Z,10.02
2017-10-09T02:17:15.104Z,8.45
2017-10-09T02:19:42.900Z,9.60
2017-10-09T02:22:09.647Z,8.65
2017-10-09T02:24:37.525Z,9.50
2017-10-09T02:27:04.632Z,8.73
2017-10-09T02:29:32.248Z,9.70
2017-10-09T02:32:00.307Z,8.80
2017-10-09T02:34:27.166Z,9.32
2017-10-09T02:36:53.947Z,9.45
2017-10-09T02:39:20.827Z,9.75
2017-10-09T02:41:48.508Z,8.18
2017-10-09T02:44:16.695Z,9.70
2017-10-09T02:46:44.372Z,10.80
2017-10-09T02:49:13.009Z,8.65
2017-10-09T02:51:40.403Z,9.30
2017-10-09T02:54:08.611Z,8.63
2017-10-09T02:56:37.983Z,9.40
2017-10-09T02:59:05.339Z,9.20
2017-10-09T03:01:32.781Z,9.60
2017-10-09T03:03:59.655Z,8.73
2017-10-09T03:06:26.399Z,8.95
2017-10-09T03:08:53.611Z,8.48
2017-10-09T03:11:21.469Z,9.38
2017-10-09T03:13:48.601Z,7.85
2017-10-09T03:16:15.373Z,8.55
2017-10-09T03:18:42.118Z,9.02
2017-10-09T03:21:10.501Z,8.90
2017-10-09T03:23:43.689Z,9.68
2017-10-09T03:26:12.022Z,8.52
2017-10-09T03:28:54.371Z,8.40
2017-10-09T03:31:21.162Z,9.25
2017-10-09T03:33:48.603Z,9.20
2017-10-09T03:36:17.184Z,8.88
2017-10-09T03:38:46.130Z,9.32
2017-10-09T03:41:13.014Z,8.50
2017-10-09T03:43:41.787Z,7.90
2017-10-09T03:46:09.301Z,8.73
2017-10-09T03:48:37.691Z,9.80
2017-10-09T03:51:04.814Z,8.88
2017-10-09T03:53:31.638Z,10.07
2017-10-09T03:56:00.305Z,10.30
2017-10-09T03:58:27.120Z,8.95
2017-10-09T04:00:54.442Z,9.82
2017-10-09T04:03:21.291Z,8.25
2017-10-09T04:05:48.188Z,9.25
2017-10-09T04:08:15.499Z,9.57
2017-10-09T04:10:43.382Z,9.85
2017-10-09T04:13:11.013Z,8.65
2017-10-09T04:15:40.183Z,9.05
2017-10-09T04:18:09.279Z,10.20
2017-10-09T04:20:36.949Z,10.43
2017-10-09T04:23:03.720Z,9.70
2017-10-09T04:25:32.699Z,9.75
2017-10-09T04:27:59.492Z,8.30
2017-10-09T04:30:26.494Z,10.15
2017-10-09T04:32:54.615Z,9.63
2017-10-09T04:35:22.340Z,8.93
2017-10-09T04:37:49.751Z,9.48
2017-10-09T04:40:17.519Z,8.80
2017-10-09T04:42:44.591Z,8.45
2017-10-09T04:45:12.551Z,9.25
2017-10-09T04:47:41.916Z,9.38
2017-10-09T04:50:10.059Z,9.02
2017-10-09T04:52:37.988Z,10.00
2017-10-09T04:55:05.095Z,10.00
2017-10-09T04:57:32.678Z,8.85
2017-10-09T05:00:00.147Z,9.25
2017-10-09T05:02:28.667Z,9.95
2017-10-09T05:04:55.707Z,9.23
2017-10-09T05:07:25.851Z,10.07
2017-10-09T05:09:52.867Z,9.82
2017-10-09T05:12:20.468Z,9.25
2017-10-09T05:14:47.256Z,10.95
2017-10-09T05:17:14.062Z,9.77
2017-10-09T05:19:41.611Z,10.57
2017-10-09T05:22:08.438Z,11.50
2017-10-09T05:24:35.402Z,10.65
2017-10-09T05:27:02.175Z,11.57
2017-10-09T05:29:30.071Z,9.98
2017-10-09T05:31:59.977Z,12.57
2017-10-09T05:34:26.764Z,12.35
2017-10-09T05:36:53.530Z,12.75
2017-10-09T05:39:20.249Z,11.50
2017-10-09T05:41:47.002Z,15.18
2017-10-09T05:44:13.759Z,12.93
2017-10-09T05:46:40.484Z,12.98
2017-10-09T05:49:07.184Z,11.75
2017-10-09T05:51:33.901Z,10.80
2017-10-09T05:54:00.600Z,10.20
2017-10-09T05:56:27.312Z,12.82
2017-10-09T05:58:54.628Z,13.73
2017-10-09T06:01:21.343Z,13.20
2017-10-09T06:03:48.047Z,11.27
2017-10-09T06:06:14.992Z,13.93
2017-10-09T06:08:41.679Z,13.35
2017-10-09T06:11:08.392Z,12.68
2017-10-09T06:13:35.081Z,14.60
2017-10-09T06:16:01.782Z,14.87
2017-10-09T06:18:28.495Z,13.07
2017-10-09T06:20:55.192Z,14.57
2017-10-09T06:23:21.901Z,13.88
2017-10-09T06:25:48.600Z,13.82
2017-10-09T06:28:15.319Z,13.65
2017-10-09T06:30:42.019Z,12.95
2017-10-09T06:33:08.740Z,14.68
2017-10-09T06:35:35.443Z,14.45
2017-10-09T06:38:02.154Z,17.05
2017-10-09T06:40:28.841Z,14.43
2017-10-09T06:42:55.555Z,14.45
2017-10-09T06:45:22.245Z,13.40
2017-10-09T06:47:48.964Z,13.27
2017-10-09T06:50:15.655Z,13.15
2017-10-09T06:52:42.371Z,13.85
2017-10-09T06:55:09.064Z,10.93
2017-10-09T06:57:35.776Z,12.10
2017-10-09T07:00:02.484Z,12.07
2017-10-09T07:02:29.204Z,11.82
2017-10-09T07:04:55.896Z,10.45
2017-10-09T07:07:22.600Z,11.12
2017-10-09T07:09:49.297Z,11.20
2017-10-09T07:12:16.005Z,10.35
2017-10-09T07:14:42.690Z,11.55
2017-10-09T07:17:09.401Z,12.23
2017-10-09T07:19:36.117Z,11.25
2017-10-09T07:22:02.884Z,12.32
2017-10-09T07:24:29.584Z,12.05
2017-10-09T07:26:56.280Z,12.23
2017-10-09T07:29:22.992Z,11.95
2017-10-09T07:31:49.689Z,10.65
2017-10-09T07:34:16.399Z,12.25
2017-10-09T07:36:43.085Z,13.70
2017-10-09T07:39:09.795Z,11.45
2017-10-09T07:41:36.496Z,10.60
2017-10-09T07:44:03.208Z,9.85
2017-10-09T07:46:29.911Z,11.75
2017-10-09T07:48:56.616Z,12.05
2017-10-09T07:51:23.304Z,11.15
2017-10-09T07:53:50.012Z,9.85
2017-10-09T07:56:16.706Z,9.48
2017-10-09T07:58:43.424Z,9.27
2017-10-09T08:01:10.113Z,9.55
2017-10-09T08:03:36.819Z,8.45
2017-10-09T08:06:03.516Z,9.57
2017-10-09T08:08:30.215Z,8.13
2017-10-09T08:10:56.913Z,9.70
2017-10-09T08:13:23.625Z,9.27
2017-10-09T08:15:50.304Z,8.18
2017-10-09T08:18:17.020Z,8.20
2017-10-09T08:20:43.711Z,8.50
2017-10-09T08:23:10.436Z,8.05
2017-10-09T08:25:37.623Z,7.03
2017-10-09T08:28:04.335Z,6.95
2017-10-09T08:30:31.019Z,6.90
2017-10-09T08:32:57.715Z,6.82
2017-10-09T08:35:24.387Z,6.60
2017-10-09T08:37:51.090Z,6.12
2017-10-09T08:40:17.776Z,6.35
2017-10-09T08:42:44.454Z,6.03
2017-10-09T08:45:11.155Z,5.60
2017-10-09T08:47:37.836Z,5.75
2017-10-09T08:50:04.540Z,4.80
2017-10-09T08:52:31.219Z,5.40
2017-10-09T08:54:57.927Z,6.10
2017-10-09T08:57:24.603Z,5.90
2017-10-09T08:59:51.311Z,5.78
2017-10-09T09:02:18.011Z,6.20
2017-10-09T09:04:44.716Z,7.18
2017-10-09T09:07:11.411Z,7.25
2017-10-09T09:09:38.140Z,6.45
2017-10-09T09:12:04.815Z,7.15
2017-10-09T09:14:31.523Z,6.47
2017-10-09T09:16:58.212Z,8.27
2017-10-09T09:19:24.919Z,6.95
2017-10-09T09:21:51.603Z,7.87
2017-10-09T09:24:18.313Z,8.70
2017-10-09T09:26:45.000Z,7.85
2017-10-09T09:29:11.707Z,8.32
2017-10-09T09:31:38.403Z,10.48
2017-10-09T09:34:05.137Z,8.13
2017-10-09T09:36:31.819Z,8.13
2017-10-09T09:38:58.515Z,8.23
2017-10-09T09:41:25.200Z,7.65
2017-10-09T09:43:51.901Z,6.85
2017-10-09T09:46:18.580Z,6.22
2017-10-09T09:48:45.278Z,6.45
2017-10-09T09:51:11.999Z,6.12
2017-10-09T09:53:38.692Z,6.22
2017-10-09T09:56:05.400Z,5.75
2017-10-09T09:58:32.104Z,6.80
2017-10-09T10:00:58.804Z,6.87
2017-10-09T10:03:26.757Z,6.45
2017-10-09T10:05:53.801Z,6.75
2017-10-09T10:08:22.746Z,6.00
2017-10-09T10:10:49.867Z,6.03
2017-10-09T10:13:17.512Z,5.70
2017-10-09T10:15:45.383Z,6.03
2017-10-09T10:18:15.172Z,6.30
2017-10-09T10:20:42.788Z,5.80
2017-10-09T10:23:09.470Z,6.28
2017-10-09T10:25:36.177Z,4.80
2017-10-09T10:28:02.864Z,5.43
2017-10-09T10:30:30.683Z,5.32
2017-10-09T10:32:58.000Z,4.85
2017-10-09T10:35:25.328Z,5.40
2017-10-09T10:37:54.924Z,4.97
2017-10-09T10:40:21.631Z,4.50
2017-10-09T10:42:49.047Z,5.68
2017-10-09T10:45:15.964Z,4.65
2017-10-09T10:47:42.672Z,5.72
2017-10-09T10:50:10.145Z,6.40
2017-10-09T10:52:36.899Z,6.85
2017-10-09T10:55:04.399Z,7.05
2017-10-09T10:57:31.084Z,7.57
2017-10-09T10:59:58.030Z,7.62
2017-10-09T11:02:25.199Z,7.20
2017-10-09T11:04:51.926Z,7.03
2017-10-09T11:07:18.688Z,7.80
2017-10-09T11:09:45.645Z,6.05
2017-10-09T11:12:12.443Z,7.70
2017-10-09T11:14:40.733Z,6.37
2017-10-09T11:17:09.410Z,5.80
2017-10-09T11:19:36.422Z,5.97
2017-10-09T11:22:03.712Z,6.30
2017-10-09T11:24:30.483Z,6.97
2017-10-09T11:26:57.937Z,7.68
2017-10-09T11:29:25.128Z,8.02
2017-10-09T11:31:51.941Z,9.13
2017-10-09T11:37:37.924Z,8.35
2017-10-09T11:40:04.811Z,8.05
2017-10-09T11:42:31.571Z,7.85
2017-10-09T11:44:58.295Z,8.25
2017-10-09T11:47:25.023Z,7.70
2017-10-09T11:49:51.755Z,7.25
2017-10-09T11:52:18.510Z,8.38
2017-10-09T11:54:45.255Z,8.13
2017-10-09T11:57:12.047Z,8.30
2017-10-09T11:59:38.782Z,8.45
2017-10-09T12:02:05.851Z,7.60
2017-10-09T12:04:32.567Z,8.30
2017-10-09T12:06:59.326Z,7.95
2017-10-09T12:09:26.392Z,7.37
2017-10-09T12:11:54.111Z,7.75
2017-10-09T12:14:20.871Z,7.25
2017-10-09T12:16:47.649Z,7.22
2017-10-09T12:19:14.365Z,6.30
2017-10-09T12:21:41.098Z,6.97
2017-10-09T12:24:07.955Z,6.43
2017-10-09T12:32:32.909Z,8.82
2017-10-09T12:35:14.490Z,10.68
2017-10-09T12:37:41.259Z,8.63
2017-10-09T12:40:08.046Z,8.63
2017-10-09T12:42:34.782Z,8.15
2017-10-09T12:45:01.487Z,7.90
2017-10-09T12:47:28.235Z,8.13
2017-10-09T12:49:55.015Z,7.65
2017-10-09T12:52:21.768Z,8.60
2017-10-09T12:54:48.525Z,7.32
2017-10-09T12:57:15.242Z,6.78
2017-10-09T12:59:41.940Z,7.00
2017-10-09T13:02:08.683Z,7.78
2017-10-09T13:04:35.435Z,7.00
2017-10-09T13:07:02.163Z,7.30
2017-10-09T13:09:28.915Z,7.35
2017-10-09T13:11:55.639Z,7.68
2017-10-09T13:14:22.347Z,7.28
2017-10-09T13:16:49.099Z,7.85
2017-10-09T13:19:15.911Z,6.95
2017-10-09T13:21:42.639Z,7.62
2017-10-09T13:24:09.349Z,8.23
2017-10-09T13:26:36.123Z,7.18
2017-10-09T13:29:02.869Z,7.53
2017-10-09T13:31:29.592Z,8.18
2017-10-09T13:33:56.343Z,7.90
2017-10-09T13:36:23.075Z,7.97
2017-10-09T13:38:49.793Z,9.10
2017-10-09T13:41:16.495Z,7.95
2017-10-09T13:43:43.251Z,9.50
2017-10-09T13:46:09.952Z,7.82
2017-10-09T13:48:36.691Z,8.02
2017-10-09T13:51:03.393Z,8.98
2017-10-09T13:53:30.096Z,7.95
2017-10-09T13:55:56.795Z,7.87
2017-10-09T13:58:23.525Z,8.55
2017-10-09T14:00:50.259Z,9.45
2017-10-09T14:03:16.978Z,8.75
2017-10-09T14:05:43.672Z,8.73
2017-10-09T14:08:10.381Z,8.55
2017-10-09T14:10:37.073Z,8.85
2017-10-09T14:13:03.803Z,8.48
2017-10-09T14:15:30.531Z,8.75
2017-10-09T14:17:57.283Z,9.88
2017-10-09T14:20:24.036Z,8.57
2017-10-09T14:22:50.771Z,8.40
2017-10-09T14:25:17.521Z,8.55
2017-10-09T14:27:44.252Z,8.68
2017-10-09T14:30:10.955Z,9.18
2017-10-09T14:39:57.773Z,8.32
2017-10-09T14:42:24.527Z,8.05
2017-10-09T14:44:51.243Z,8.43
2017-10-09T14:47:17.995Z,9.07
2017-10-09T14:49:44.726Z,8.35
2017-10-09T14:52:11.440Z,10.10
2017-10-09T14:54:38.163Z,8.75
2017-10-09T14:57:04.882Z,9.73
2017-10-09T14:59:31.667Z,10.18
2017-10-09T15:01:58.436Z,9.77
2017-10-09T15:04:25.174Z,10.57
2017-10-09T15:06:51.885Z,11.88
2017-10-09T15:09:18.671Z,11.60
2017-10-09T15:11:45.406Z,11.38
2017-10-09T15:14:12.160Z,11.80
2017-10-09T15:16:38.875Z,12.10
2017-10-09T15:19:05.659Z,12.80
2017-10-09T15:21:32.387Z,13.95
2017-10-09T15:23:59.126Z,14.05
2017-10-09T15:26:25.834Z,12.32
2017-10-09T15:28:52.608Z,13.25
2017-10-09T15:31:19.328Z,16.65
2017-10-09T15:33:46.049Z,16.80
2017-10-09T15:36:12.779Z,15.25
2017-10-09T15:38:39.523Z,15.20
2017-10-09T15:41:06.566Z,16.00
2017-10-09T15:43:37.094Z,14.80
2017-10-09T15:46:04.777Z,14.70
2017-10-09T15:48:31.676Z,14.77
2017-10-09T15:50:58.463Z,16.27
2017-10-09T15:53:25.288Z,15.65
2017-10-09T15:55:52.003Z,16.20
2017-10-09T15:58:18.739Z,15.30
2017-10-09T16:00:46.198Z,15.90
2017-10-09T16:03:13.909Z,15.00
2017-10-09T16:05:40.623Z,15.43
2017-10-09T16:08:07.806Z,14.07
2017-10-09T16:10:34.595Z,15.00
2017-10-09T16:13:01.288Z,15.60
2017-10-09T16:15:28.844Z,15.73
2017-10-09T16:17:55.544Z,16.83
2017-10-09T16:20:22.256Z,16.30
2017-10-09T16:22:49.087Z,16.17
2017-10-09T16:25:15.804Z,17.35
2017-10-09T16:27:42.503Z,17.67
2017-10-09T16:30:09.216Z,16.92
2017-10-09T16:32:35.996Z,18.23
2017-10-09T16:35:03.292Z,17.67
2017-10-09T16:37:31.484Z,18.58
2017-10-09T16:39:58.452Z,17.25
2017-10-09T16:42:25.149Z,17.92
2017-10-09T16:44:51.864Z,17.25
2017-10-09T16:47:18.548Z,19.02
2017-10-09T16:49:45.256Z,21.25
2017-10-09T16:52:11.956Z,19.73
2017-10-09T16:54:38.675Z,19.70
2017-10-09T16:57:05.384Z,21.33
2017-10-09T16:59:32.108Z,24.05
2017-10-09T17:01:58.800Z,20.83
2017-10-09T17:04:25.516Z,20.55
2017-10-09T17:06:52.215Z,22.45
2017-10-09T17:09:18.919Z,18.60
2017-10-09T17:11:45.619Z,22.62
2017-10-09T17:14:12.348Z,20.83
2017-10-09T17:16:39.040Z,21.73
2017-10-09T17:19:05.760Z,24.92
2017-10-09T17:21:32.452Z,24.00
2017-10-09T17:24:00.155Z,22.75
2017-10-09T17:26:28.117Z,24.60
2017-10-09T17:28:54.848Z,23.23
2017-10-09T17:31:27.184Z,27.05
2017-10-09T17:33:54.104Z,25.92
2017-10-09T17:36:21.556Z,24.80
2017-10-09T17:40:46.831Z,23.42
2017-10-09T17:43:13.540Z,21.92
2017-10-09T17:45:40.667Z,21.48
2017-10-09T17:48:07.999Z,22.85
2017-10-09T17:50:34.768Z,20.98
2017-10-09T17:53:01.476Z,23.05
2017-10-09T17:55:28.261Z,23.52
2017-10-09T17:57:56.306Z,26.08
2017-10-09T18:00:23.712Z,24.08
2017-10-09T18:02:50.468Z,20.58
2017-10-09T18:05:17.188Z,22.35
2017-10-09T18:07:45.997Z,22.08
2017-10-09T18:10:12.948Z,22.55
2017-10-09T18:12:39.688Z,24.25
2017-10-09T18:15:06.424Z,25.42
2017-10-09T18:17:33.992Z,28.48
2017-10-09T18:20:01.669Z,26.92
2017-10-09T18:22:28.387Z,29.75
2017-10-09T18:24:55.855Z,26.13
2017-10-09T18:27:22.556Z,29.25
2017-10-09T18:29:49.247Z,28.27
2017-10-09T18:32:15.972Z,30.40
2017-10-09T18:34:43.767Z,29.75
2017-10-09T18:37:11.995Z,30.75
2017-10-09T18:39:39.006Z,28.87
2017-10-09T18:42:06.100Z,29.85
2017-10-09T18:44:33.828Z,29.58
2017-10-09T18:47:00.537Z,30.08
2017-10-09T18:49:28.435Z,30.25
2017-10-09T18:51:56.500Z,34.33
2017-10-09T18:54:23.268Z,29.92
2017-10-09T18:56:51.615Z,31.05
2017-10-09T18:59:20.404Z,35.80
2017-10-09T19:01:48.393Z,32.67
2017-10-09T19:04:15.191Z,31.65
2017-10-09T19:06:42.600Z,31.50
2017-10-09T19:09:09.393Z,33.47
2017-10-09T19:11:38.494Z,33.92
2017-10-09T19:14:06.269Z,36.45
2017-10-09T19:16:34.456Z,32.67
2017-10-09T19:19:02.569Z,33.03
2017-10-09T19:21:31.324Z,39.60
2017-10-09T19:24:02.065Z,34.47
2017-10-09T19:29:20.068Z,44.15
2017-10-09T19:31:46.848Z,35.17
2017-10-09T19:34:15.249Z,35.10
2017-10-09T19:36:42.171Z,38.38
2017-10-09T19:39:16.203Z,37.00
2017-10-09T19:41:45.466Z,37.13
2017-10-09T19:44:20.999Z,37.30
2017-10-09T19:46:51.967Z,38.10
2017-10-09T19:49:22.525Z,38.38
2017-10-09T19:51:54.051Z,40.35
2017-10-09T19:54:25.383Z,36.60
2017-10-09T19:56:52.706Z,43.35
2017-10-09T19:59:21.987Z,34.92
2017-10-09T20:01:51.052Z,41.95
2017-10-09T20:04:30.742Z,36.65
2017-10-09T20:10:02.474Z,42.53
2017-10-09T20:12:33.970Z,35.45
2017-10-09T20:15:02.803Z,40.67
2017-10-09T20:20:17.572Z,37.97
2017-10-09T20:22:47.532Z,31.62
2017-10-09T20:28:02.480Z,29.30
2017-10-09T20:30:35.748Z,31.20
2017-10-09T20:33:03.485Z,28.87
2017-10-09T20:35:36.436Z,28.50
2017-10-09T20:38:03.200Z,28.98
2017-10-09T20:40:31.312Z,30.60
2017-10-09T20:42:59.841Z,28.80
2017-10-09T20:45:35.640Z,26.00
2017-10-09T20:48:03.787Z,29.15
2017-10-09T20:53:37.783Z,25.35
2017-10-09T20:56:05.101Z,25.80
2017-10-09T20:58:32.407Z,23.10
2017-10-09T21:00:59.212Z,29.05
2017-10-09T21:03:26.796Z,25.98
2017-10-09T21:05:53.663Z,27.87
2017-10-09T21:08:21.435Z,27.58
2017-10-09T21:10:49.830Z,26.67
2017-10-09T21:13:17.024Z,27.87
2017-10-09T21:15:44.637Z,25.95
2017-10-09T21:18:12.472Z,23.98
2017-10-09T21:20:40.044Z,27.77
2017-10-09T21:23:06.883Z,24.98
2017-10-09T21:25:35.067Z,24.30
2017-10-09T21:28:03.106Z,25.80
2017-10-09T21:30:29.980Z,23.27
2017-10-09T21:32:56.840Z,23.60
2017-10-09T21:35:23.989Z,26.40
2017-10-09T21:37:53.294Z,27.42
2017-10-09T21:40:20.211Z,23.55
2017-10-09T21:42:47.422Z,26.87
2017-10-09T21:45:14.216Z,25.73
2017-10-09T21:47:41.073Z,25.52
2017-10-09T21:50:09.377Z,27.98
2017-10-09T21:52:36.759Z,25.27
2017-10-09T21:55:03.517Z,24.90
2017-10-09T21:57:30.372Z,30.77
2017-10-09T21:59:58.626Z,29.17
2017-10-09T22:02:26.198Z,23.58
2017-10-09T22:04:54.023Z,22.40
2017-10-09T22:07:21.015Z,26.02
2017-10-09T22:09:49.658Z,21.87
2017-10-09T22:12:21.824Z,22.52
2017-10-09T22:15:00.288Z,26.77
2017-10-09T22:17:28.939Z,27.02
2017-10-09T22:19:57.312Z,24.80
2017-10-09T22:22:25.514Z,29.75
2017-10-09T22:27:45.311Z,30.08
2017-10-09T22:30:12.852Z,26.60
2017-10-09T22:32:43.904Z,28.15
2017-10-09T22:35:12.787Z,29.08
2017-10-09T22:37:47.272Z,30.42
2017-10-09T22:40:15.061Z,30.98
2017-10-09T22:42:49.947Z,33.28
2017-10-09T22:45:17.532Z,33.80
2017-10-09T22:47:48.719Z,36.40
2017-10-09T22:50:19.731Z,37.53
2017-10-09T22:52:47.328Z,31.52
2017-10-09T22:55:16.741Z,35.45
2017-10-09T22:57:44.348Z,40.03
2017-10-09T23:00:15.585Z,37.05
2017-10-09T23:02:43.186Z,42.62
2017-10-09T23:05:10.512Z,39.75
2017-10-09T23:12:54.543Z,37.33
2017-10-09T23:15:22.027Z,39.53
2017-10-09T23:17:48.824Z,43.70
2017-10-09T23:20:16.780Z,43.67
2017-10-09T23:22:44.320Z,44.15
2017-10-09T23:25:11.148Z,49.22
2017-10-09T23:27:40.674Z,43.17
2017-10-09T23:30:13.337Z,43.20
2017-10-09T23:32:44.915Z,40.70
2017-10-09T23:35:15.898Z,50.95
2017-10-09T23:37:45.701Z,51.67
2017-10-09T23:40:14.648Z,48.90
2017-10-09T23:42:42.700Z,47.30
2017-10-09T23:45:11.367Z,44.05
2017-10-09T23:47:38.827Z,51.20
2017-10-09T23:50:06.325Z,54.05
2017-10-09T23:52:33.173Z,47.08
2017-10-09T23:55:00.769Z,53.20
2017-10-09T23:57:29.353Z,53.47
2017-10-09T23:59:57.226Z,58.20
